Time;durP1;ratioP1;P1;durP2;ratioP2;P2;SDS_P1;SDS_P2;PMS_P1;PMS_P2;Temp;Humidity;BMP_temperature;BMP_pressure;BME280_temperature;BME280_humidity;BME280_pressure;Samples;Min_cycle;Max_cycle;Signal;HPM_P1;HPM_P2
2024/01/28 00:00:15;;;;;;;9.90;5.28;;;;;;;;;;4972397;28;20047;-81
2024/01/28 00:02:42;;;;;;;9.43;4.47;;;;;;;;;;4977101;28;20055;-82
2024/01/28 00:05:11;;;;;;;10.27;5.47;;;;;;;;;;4976615;28;20054;-82
2024/01/28 00:07:41;;;;;;;12.35;5.57;;;;;;;;;;4977036;28;20050;-81
2024/01/28 00:10:08;;;;;;;11.68;5.85;;;;;;;;;;4977130;28;20046;-82
2024/01/28 00:12:37;;;;;;;10.18;4.78;;;;;;;;;;4977164;28;20058;-81
2024/01/28 00:15:06;;;;;;;10.18;5.15;;;;;;;;;;4964180;28;20054;-81
2024/01/28 00:17:33;;;;;;;11.43;4.80;;;;;;;;;;4972747;28;20062;-82
2024/01/28 00:20:00;;;;;;;11.40;5.57;;;;;;;;;;4975268;28;20055;-82
2024/01/28 00:22:29;;;;;;;15.18;5.57;;;;;;;;;;4976218;28;20062;-81
2024/01/28 00:24:56;;;;;;;11.00;6.43;;;;;;;;;;4962423;28;20436;-82
2024/01/28 00:27:22;;;;;;;13.52;6.57;;;;;;;;;;4975064;28;20050;-82
2024/01/28 00:29:51;;;;;;;10.95;5.78;;;;;;;;;;4975796;28;20480;-81
2024/01/28 00:32:17;;;;;;;11.10;5.93;;;;;;;;;;4969464;28;20051;-82
2024/01/28 00:34:44;;;;;;;14.48;7.68;;;;;;;;;;4974593;28;20054;-82
2024/01/28 00:37:11;;;;;;;15.73;7.63;;;;;;;;;;4976940;28;20062;-82
2024/01/28 00:39:38;;;;;;;14.75;7.75;;;;;;;;;;4976094;28;20123;-82
2024/01/28 00:42:05;;;;;;;14.63;8.63;;;;;;;;;;4971919;28;20139;-82
2024/01/28 00:44:32;;;;;;;13.88;8.18;;;;;;;;;;4977218;28;20058;-82
2024/01/28 00:47:00;;;;;;;12.82;7.70;;;;;;;;;;4986004;28;20488;-82
2024/01/28 00:49:29;;;;;;;15.25;7.40;;;;;;;;;;4975990;28;20058;-81
2024/01/28 00:51:56;;;;;;;17.38;7.45;;;;;;;;;;4976041;28;20050;-82
2024/01/28 00:54:23;;;;;;;14.18;6.78;;;;;;;;;;4976678;28;20050;-82
2024/01/28 00:56:50;;;;;;;12.05;6.43;;;;;;;;;;4976789;28;20066;-82
2024/01/28 00:59:17;;;;;;;11.60;6.10;;;;;;;;;;4969062;28;20502;-82
2024/01/28 01:01:43;;;;;;;10.43;6.30;;;;;;;;;;4965473;28;20057;-82
2024/01/28 01:04:12;;;;;;;8.82;5.03;;;;;;;;;;4974589;28;20053;-82
2024/01/28 01:06:39;;;;;;;12.25;6.13;;;;;;;;;;4975910;28;20416;-83
2024/01/28 01:09:07;;;;;;;9.73;5.15;;;;;;;;;;4974132;28;20181;-82
2024/01/28 01:11:34;;;;;;;16.10;5.72;;;;;;;;;;4975012;28;20073;-82
2024/01/28 01:14:01;;;;;;;9.13;5.18;;;;;;;;;;4974854;28;20055;-82
2024/01/28 01:16:28;;;;;;;8.07;4.95;;;;;;;;;;4972926;28;20065;-83
2024/01/28 01:18:54;;;;;;;7.47;4.68;;;;;;;;;;4976139;28;20062;-83
2024/01/28 01:21:23;;;;;;;9.52;5.38;;;;;;;;;;4976172;28;20058;-83
2024/01/28 01:23:49;;;;;;;10.13;5.65;;;;;;;;;;4975013;28;20066;-82
2024/01/28 01:26:16;;;;;;;9.35;5.70;;;;;;;;;;4975401;28;20058;-82
2024/01/28 01:28:43;;;;;;;9.02;5.95;;;;;;;;;;4976573;28;20059;-83
2024/01/28 01:31:10;;;;;;;11.68;6.13;;;;;;;;;;4972072;28;20051;-82
2024/01/28 01:33:37;;;;;;;11.75;6.70;;;;;;;;;;4976216;28;20055;-83
2024/01/28 01:36:05;;;;;;;11.43;5.70;;;;;;;;;;4974588;28;20066;-82
2024/01/28 01:38:33;;;;;;;9.93;6.30;;;;;;;;;;4964726;28;20058;-82
2024/01/28 01:41:00;;;;;;;10.32;6.13;;;;;;;;;;4967195;28;20047;-83
2024/01/28 01:43:27;;;;;;;15.60;6.28;;;;;;;;;;4974705;28;20081;-83
2024/01/28 01:45:54;;;;;;;9.15;5.57;;;;;;;;;;4974669;28;20050;-83
2024/01/28 01:48:20;;;;;;;14.65;6.03;;;;;;;;;;4967928;28;20046;-83
2024/01/28 01:50:50;;;;;;;12.82;6.40;;;;;;;;;;4971123;28;20046;-83
2024/01/28 01:53:17;;;;;;;10.15;4.88;;;;;;;;;;4975749;28;20062;-83
2024/01/28 01:55:46;;;;;;;9.82;5.30;;;;;;;;;;4975047;28;20059;-83
2024/01/28 01:58:13;;;;;;;8.77;5.03;;;;;;;;;;4975884;28;20059;-83
2024/01/28 02:00:40;;;;;;;9.52;5.32;;;;;;;;;;4969937;28;20051;-83
2024/01/28 02:03:07;;;;;;;13.30;5.72;;;;;;;;;;4969144;28;20051;-83
2024/01/28 02:05:34;;;;;;;11.75;4.82;;;;;;;;;;4971700;28;20058;-82
2024/01/28 02:08:01;;;;;;;10.45;5.25;;;;;;;;;;4975231;28;20061;-83
2024/01/28 02:10:28;;;;;;;10.45;4.82;;;;;;;;;;4975159;28;20055;-83
2024/01/28 02:12:56;;;;;;;9.70;5.13;;;;;;;;;;4961050;28;20058;-83
2024/01/28 02:15:23;;;;;;;10.48;5.22;;;;;;;;;;4972747;28;20062;-83
2024/01/28 02:17:50;;;;;;;11.15;5.60;;;;;;;;;;4968672;28;20047;-83
2024/01/28 02:20:16;;;;;;;12.00;4.97;;;;;;;;;;4965023;28;20105;-83
2024/01/28 02:22:42;;;;;;;9.65;4.60;;;;;;;;;;4973346;28;20051;-83
2024/01/28 02:25:11;;;;;;;12.70;5.13;;;;;;;;;;4974252;28;20051;-82
2024/01/28 02:27:41;;;;;;;11.73;6.05;;;;;;;;;;4975563;28;20046;-83
2024/01/28 02:30:09;;;;;;;7.40;4.18;;;;;;;;;;4974475;28;20051;-83
2024/01/28 02:32:35;;;;;;;8.40;4.22;;;;;;;;;;4981472;28;20054;-83
2024/01/28 02:35:02;;;;;;;8.23;4.20;;;;;;;;;;4961481;28;20054;-83
2024/01/28 02:37:29;;;;;;;10.45;4.30;;;;;;;;;;4974441;28;20069;-83
2024/01/28 02:39:56;;;;;;;10.95;6.03;;;;;;;;;;4973940;28;20062;-83
2024/01/28 02:42:24;;;;;;;11.82;5.78;;;;;;;;;;4974942;28;20046;-83
2024/01/28 02:44:51;;;;;;;7.38;4.95;;;;;;;;;;4974655;28;20062;-83
2024/01/28 02:47:17;;;;;;;14.32;6.85;;;;;;;;;;4973172;28;20480;-83
2024/01/28 02:49:44;;;;;;;12.55;5.75;;;;;;;;;;4974935;28;20050;-83
2024/01/28 02:52:11;;;;;;;10.85;5.05;;;;;;;;;;4974659;28;20384;-83
2024/01/28 02:54:38;;;;;;;7.30;4.75;;;;;;;;;;4973810;28;20057;-83
2024/01/28 02:57:04;;;;;;;11.70;5.32;;;;;;;;;;4968512;28;20376;-83
2024/01/28 02:59:33;;;;;;;13.00;7.43;;;;;;;;;;4972624;28;20054;-82
2024/01/28 03:01:59;;;;;;;11.38;6.40;;;;;;;;;;4972068;28;20058;-82
2024/01/28 03:04:26;;;;;;;12.45;6.43;;;;;;;;;;4965891;28;20512;-82
2024/01/28 03:06:53;;;;;;;10.55;5.32;;;;;;;;;;4973690;28;20050;-83
2024/01/28 03:09:20;;;;;;;8.85;5.05;;;;;;;;;;4973620;28;20505;-82
2024/01/28 03:11:47;;;;;;;7.93;4.93;;;;;;;;;;4974175;28;20046;-83
2024/01/28 03:14:14;;;;;;;9.85;5.25;;;;;;;;;;4974711;28;20061;-83
2024/01/28 03:16:42;;;;;;;10.68;5.68;;;;;;;;;;4972647;28;20062;-82
2024/01/28 03:19:09;;;;;;;9.65;5.53;;;;;;;;;;4982328;28;20050;-83
2024/01/28 03:21:35;;;;;;;10.52;4.78;;;;;;;;;;4983567;28;20059;-83
2024/01/28 03:24:02;;;;;;;9.45;4.57;;;;;;;;;;4962233;28;20051;-83
2024/01/28 03:26:29;;;;;;;11.15;4.97;;;;;;;;;;4969899;28;20059;-82
2024/01/28 03:28:56;;;;;;;7.72;4.65;;;;;;;;;;4965440;28;20063;-82
2024/01/28 03:31:23;;;;;;;11.95;4.70;;;;;;;;;;4969935;28;20055;-82
2024/01/28 03:33:51;;;;;;;11.25;5.20;;;;;;;;;;4972761;28;20073;-82
2024/01/28 03:36:18;;;;;;;12.35;5.20;;;;;;;;;;4966216;28;20140;-82
2024/01/28 03:38:45;;;;;;;10.52;5.85;;;;;;;;;;4972435;28;20095;-83
2024/01/28 03:41:13;;;;;;;7.97;4.80;;;;;;;;;;4973873;28;20055;-82
2024/01/28 03:43:42;;;;;;;10.52;5.00;;;;;;;;;;4974430;28;20058;-83
2024/01/28 03:46:09;;;;;;;11.75;5.05;;;;;;;;;;4971942;28;20057;-83
2024/01/28 03:48:35;;;;;;;10.52;4.78;;;;;;;;;;4973110;28;20059;-82
2024/01/28 03:51:04;;;;;;;9.20;4.78;;;;;;;;;;4962142;28;20090;-82
2024/01/28 03:53:30;;;;;;;11.38;5.00;;;;;;;;;;4972924;28;20057;-82
2024/01/28 03:55:58;;;;;;;8.70;4.53;;;;;;;;;;4974004;28;20058;-82
2024/01/28 03:58:25;;;;;;;11.60;5.15;;;;;;;;;;4958996;28;20047;-82
2024/01/28 04:00:52;;;;;;;8.38;5.32;;;;;;;;;;4971446;28;20051;-82
2024/01/28 04:03:19;;;;;;;11.77;5.65;;;;;;;;;;4973238;28;20054;-82
2024/01/28 04:05:45;;;;;;;11.73;5.30;;;;;;;;;;4973813;28;20070;-83
2024/01/28 04:08:14;;;;;;;10.82;5.47;;;;;;;;;;4964478;28;20051;-82
2024/01/28 04:10:41;;;;;;;11.23;5.68;;;;;;;;;;4955635;28;20062;-83
2024/01/28 04:13:07;;;;;;;10.98;5.63;;;;;;;;;;4970588;28;20058;-82
2024/01/28 04:15:34;;;;;;;10.73;5.22;;;;;;;;;;4973646;28;20051;-83
2024/01/28 04:18:01;;;;;;;11.85;5.75;;;;;;;;;;4969460;28;20063;-83
2024/01/28 04:20:28;;;;;;;10.82;5.43;;;;;;;;;;4974222;28;20058;-84
2024/01/28 04:22:54;;;;;;;9.90;5.82;;;;;;;;;;4973696;28;20101;-83
2024/01/28 04:25:24;;;;;;;9.13;5.28;;;;;;;;;;4971149;28;20050;-83
2024/01/28 04:27:51;;;;;;;13.02;6.43;;;;;;;;;;4971492;28;20046;-83
2024/01/28 04:30:17;;;;;;;13.93;7.05;;;;;;;;;;4973488;28;20054;-84
2024/01/28 04:32:44;;;;;;;11.90;5.90;;;;;;;;;;4972192;28;20382;-84
2024/01/28 04:35:12;;;;;;;9.93;6.70;;;;;;;;;;4973483;28;20050;-83
2024/01/28 04:37:39;;;;;;;12.07;6.18;;;;;;;;;;4965872;28;20062;-83
2024/01/28 04:40:06;;;;;;;9.68;6.20;;;;;;;;;;4974000;28;20055;-82
2024/01/28 04:42:34;;;;;;;9.98;5.78;;;;;;;;;;4955703;28;20062;-82
2024/01/28 04:45:02;;;;;;;10.00;5.85;;;;;;;;;;4961533;28;20062;-82
2024/01/28 04:47:29;;;;;;;10.23;5.50;;;;;;;;;;4976083;28;20500;-82
2024/01/28 04:49:56;;;;;;;7.85;5.15;;;;;;;;;;4967791;28;20054;-82
2024/01/28 04:52:23;;;;;;;9.45;5.13;;;;;;;;;;4975756;28;20051;-82
2024/01/28 04:54:50;;;;;;;10.75;5.65;;;;;;;;;;4976857;28;20511;-83
2024/01/28 04:57:17;;;;;;;10.52;5.32;;;;;;;;;;4976850;28;20477;-82
2024/01/28 04:59:45;;;;;;;12.50;6.45;;;;;;;;;;4976421;28;20058;-82
2024/01/28 05:02:12;;;;;;;8.88;5.75;;;;;;;;;;4976236;28;20365;-82
2024/01/28 05:04:39;;;;;;;8.88;5.28;;;;;;;;;;4959688;28;20063;-83
2024/01/28 05:07:05;;;;;;;13.48;6.38;;;;;;;;;;4957396;28;20051;-82
2024/01/28 05:09:32;;;;;;;13.38;6.15;;;;;;;;;;4957843;29;20055;-83
2024/01/28 05:11:59;;;;;;;11.63;6.50;;;;;;;;;;4957294;29;20128;-83
2024/01/28 05:14:26;;;;;;;10.70;6.30;;;;;;;;;;4940275;29;20413;-82
2024/01/28 05:16:54;;;;;;;9.13;5.40;;;;;;;;;;4957371;28;20058;-82
2024/01/28 05:19:21;;;;;;;10.30;5.82;;;;;;;;;;4976530;28;20058;-82
2024/01/28 05:21:48;;;;;;;9.98;5.50;;;;;;;;;;4976058;28;20073;-82
2024/01/28 05:24:15;;;;;;;11.73;6.32;;;;;;;;;;4975788;28;20047;-82
2024/01/28 05:26:42;;;;;;;9.30;5.60;;;;;;;;;;4974289;28;20046;-83
2024/01/28 05:29:09;;;;;;;10.65;6.28;;;;;;;;;;4975215;28;20051;-82
2024/01/28 05:31:36;;;;;;;10.32;6.65;;;;;;;;;;4965845;28;20507;-82
2024/01/28 05:34:04;;;;;;;12.20;6.70;;;;;;;;;;4974811;28;20059;-82
2024/01/28 05:36:31;;;;;;;13.07;6.35;;;;;;;;;;4975603;28;20058;-83
2024/01/28 05:38:58;;;;;;;11.57;5.85;;;;;;;;;;4975545;28;20077;-82
2024/01/28 05:41:25;;;;;;;11.93;5.65;;;;;;;;;;4974917;28;20062;-84
2024/01/28 05:43:52;;;;;;;12.65;5.82;;;;;;;;;;4975090;28;20046;-82
2024/01/28 05:46:20;;;;;;;10.55;5.57;;;;;;;;;;4975173;28;20055;-82
2024/01/28 05:48:47;;;;;;;8.32;5.57;;;;;;;;;;4973989;28;20051;-83
2024/01/28 05:51:15;;;;;;;8.75;5.55;;;;;;;;;;4975548;28;20062;-82
2024/01/28 05:53:42;;;;;;;11.75;5.97;;;;;;;;;;4962905;28;20062;-83
2024/01/28 05:56:09;;;;;;;13.00;6.63;;;;;;;;;;4972163;28;20066;-82
2024/01/28 05:58:36;;;;;;;10.57;5.78;;;;;;;;;;4973945;28;20065;-83
2024/01/28 06:01:05;;;;;;;11.48;6.25;;;;;;;;;;4970838;28;20055;-83
2024/01/28 06:03:33;;;;;;;8.98;6.47;;;;;;;;;;4967435;28;20051;-84
2024/01/28 06:06:00;;;;;;;11.32;5.60;;;;;;;;;;4974747;28;20055;-83
2024/01/28 06:08:28;;;;;;;11.30;5.80;;;;;;;;;;4965635;28;20468;-83
2024/01/28 06:10:55;;;;;;;10.73;5.68;;;;;;;;;;4970225;28;20050;-83
2024/01/28 06:13:22;;;;;;;9.65;5.78;;;;;;;;;;4963234;28;20481;-83
2024/01/28 06:15:49;;;;;;;10.20;5.07;;;;;;;;;;4974819;28;20058;-83
2024/01/28 06:18:16;;;;;;;11.45;5.57;;;;;;;;;;4973067;28;20054;-83
2024/01/28 06:20:43;;;;;;;10.50;5.38;;;;;;;;;;4974328;28;20051;-82
2024/01/28 06:23:10;;;;;;;11.45;5.40;;;;;;;;;;4974689;28;20051;-82
2024/01/28 06:25:38;;;;;;;10.35;5.30;;;;;;;;;;4972395;28;20061;-81
2024/01/28 06:28:05;;;;;;;10.07;5.25;;;;;;;;;;4964862;28;20411;-82
2024/01/28 06:30:32;;;;;;;10.75;5.43;;;;;;;;;;4970917;28;20412;-82
2024/01/28 06:32:59;;;;;;;12.50;6.00;;;;;;;;;;4971474;28;20050;-82
2024/01/28 06:35:26;;;;;;;10.40;5.65;;;;;;;;;;4955761;28;20481;-82
2024/01/28 06:37:53;;;;;;;11.98;6.10;;;;;;;;;;4960600;28;20051;-82
2024/01/28 06:40:19;;;;;;;14.05;6.55;;;;;;;;;;4974246;28;20051;-83
2024/01/28 06:42:48;;;;;;;12.52;6.60;;;;;;;;;;4974624;28;20062;-82
2024/01/28 06:45:14;;;;;;;11.45;5.90;;;;;;;;;;4973271;28;20055;-82
2024/01/28 06:47:43;;;;;;;11.95;5.95;;;;;;;;;;4972826;28;20051;-81
2024/01/28 06:50:10;;;;;;;12.45;6.57;;;;;;;;;;4972841;28;20054;-81
2024/01/28 06:52:36;;;;;;;10.10;5.82;;;;;;;;;;4974682;28;20047;-83
2024/01/28 06:55:04;;;;;;;10.93;5.72;;;;;;;;;;4965507;28;20058;-82
2024/01/28 06:57:31;;;;;;;11.02;6.40;;;;;;;;;;4966596;28;20412;-82
2024/01/28 06:59:59;;;;;;;12.07;6.93;;;;;;;;;;4973823;28;20062;-82
2024/01/28 07:02:26;;;;;;;9.40;6.22;;;;;;;;;;4971693;28;20127;-82
2024/01/28 07:04:53;;;;;;;12.00;6.07;;;;;;;;;;4973082;28;20057;-82
2024/01/28 07:07:20;;;;;;;10.75;6.18;;;;;;;;;;4973705;28;20061;-83
2024/01/28 07:09:46;;;;;;;11.82;7.07;;;;;;;;;;4972904;28;20050;-82
2024/01/28 07:12:13;;;;;;;9.68;5.97;;;;;;;;;;4974270;28;20389;-82
2024/01/28 07:14:41;;;;;;;13.77;7.93;;;;;;;;;;4973723;28;20481;-82
2024/01/28 07:17:09;;;;;;;15.65;6.88;;;;;;;;;;4972217;28;20051;-82
2024/01/28 07:19:36;;;;;;;10.65;6.78;;;;;;;;;;4974618;28;20055;-83
2024/01/28 07:22:03;;;;;;;10.32;6.45;;;;;;;;;;4973240;28;20051;-82
2024/01/28 07:24:30;;;;;;;11.05;6.47;;;;;;;;;;4973590;28;20057;-83
2024/01/28 07:26:58;;;;;;;8.80;6.25;;;;;;;;;;4973618;28;20070;-82
2024/01/28 07:29:25;;;;;;;12.25;6.90;;;;;;;;;;4958720;28;20053;-83
2024/01/28 07:31:52;;;;;;;12.10;6.90;;;;;;;;;;4973370;28;20055;-82
2024/01/28 07:34:23;;;;;;;11.85;6.10;;;;;;;;;;4981794;28;20497;-82
2024/01/28 07:36:51;;;;;;;12.27;6.50;;;;;;;;;;4973577;28;20063;-82
2024/01/28 07:39:18;;;;;;;11.35;6.90;;;;;;;;;;4973470;28;20051;-82
2024/01/28 07:41:46;;;;;;;10.07;6.30;;;;;;;;;;4969978;28;20062;-82
2024/01/28 07:44:13;;;;;;;11.30;6.22;;;;;;;;;;4973773;28;20047;-82
2024/01/28 07:46:40;;;;;;;12.07;6.50;;;;;;;;;;4972014;28;20055;-82
2024/01/28 07:49:07;;;;;;;12.93;5.88;;;;;;;;;;4974672;28;20054;-82
2024/01/28 07:51:36;;;;;;;9.20;5.78;;;;;;;;;;4973814;28;20057;-83
2024/01/28 07:54:03;;;;;;;13.05;7.28;;;;;;;;;;4974111;28;20055;-83
2024/01/28 07:56:29;;;;;;;8.40;6.13;;;;;;;;;;4973255;28;20066;-82
2024/01/28 07:58:56;;;;;;;11.20;5.80;;;;;;;;;;4974001;28;20073;-83
2024/01/28 08:01:23;;;;;;;11.45;5.85;;;;;;;;;;4971419;28;20464;-83
2024/01/28 08:03:50;;;;;;;11.13;6.13;;;;;;;;;;4973998;28;20415;-82
2024/01/28 08:06:17;;;;;;;10.05;5.68;;;;;;;;;;4974742;28;20050;-82
2024/01/28 08:08:45;;;;;;;10.80;6.32;;;;;;;;;;4974177;28;20050;-82
2024/01/28 08:11:12;;;;;;;9.77;5.70;;;;;;;;;;4974319;28;20065;-82
2024/01/28 08:13:39;;;;;;;10.07;5.75;;;;;;;;;;4974463;28;20046;-82
2024/01/28 08:16:06;;;;;;;9.27;5.05;;;;;;;;;;4966991;28;20390;-84
2024/01/28 08:18:32;;;;;;;8.13;4.60;;;;;;;;;;4972213;28;20500;-83
2024/01/28 08:20:59;;;;;;;10.70;4.88;;;;;;;;;;4974148;28;20061;-80
2024/01/28 08:23:27;;;;;;;9.23;5.20;;;;;;;;;;4975593;28;20135;-80
2024/01/28 08:25:56;;;;;;;8.77;5.30;;;;;;;;;;4977119;28;20058;-82
2024/01/28 08:28:22;;;;;;;7.45;4.80;;;;;;;;;;4977268;28;20058;-83
2024/01/28 08:30:50;;;;;;;5.80;3.88;;;;;;;;;;4976854;28;20054;-83
2024/01/28 08:33:17;;;;;;;6.53;4.38;;;;;;;;;;4973563;28;20051;-81
2024/01/28 08:35:44;;;;;;;7.75;4.80;;;;;;;;;;4976851;28;20393;-80
2024/01/28 08:38:11;;;;;;;6.75;4.18;;;;;;;;;;4976959;28;20600;-82
2024/01/28 08:40:38;;;;;;;7.75;4.55;;;;;;;;;;4976929;28;20070;-84
2024/01/28 08:43:08;;;;;;;7.10;4.25;;;;;;;;;;4977120;28;20047;-83
2024/01/28 08:45:36;;;;;;;5.72;3.55;;;;;;;;;;4972085;28;20055;-84
2024/01/28 08:48:03;;;;;;;5.53;3.20;;;;;;;;;;4963589;28;20055;-84
2024/01/28 08:50:29;;;;;;;5.78;4.25;;;;;;;;;;4975858;28;20051;-85
2024/01/28 08:52:56;;;;;;;6.05;4.13;;;;;;;;;;4977267;28;20050;-85
2024/01/28 08:55:23;;;;;;;6.75;3.92;;;;;;;;;;4976929;28;20105;-85
2024/01/28 08:57:50;;;;;;;6.32;4.30;;;;;;;;;;4976277;28;20078;-87
2024/01/28 09:00:18;;;;;;;6.80;3.97;;;;;;;;;;4976737;28;20386;-84
2024/01/28 09:02:45;;;;;;;6.00;3.30;;;;;;;;;;4975589;28;20055;-79
2024/01/28 09:05:12;;;;;;;7.00;3.40;;;;;;;;;;4974467;28;20059;-82
2024/01/28 09:07:40;;;;;;;5.93;3.47;;;;;;;;;;4964062;28;20416;-81
2024/01/28 09:10:07;;;;;;;7.53;5.32;;;;;;;;;;4976848;28;20485;-79
2024/01/28 09:12:34;;;;;;;9.80;6.25;;;;;;;;;;4975670;28;20059;-79
2024/01/28 09:15:01;;;;;;;7.57;6.20;;;;;;;;;;4974731;28;20069;-78
2024/01/28 09:17:30;;;;;;;11.35;9.15;;;;;;;;;;4969279;28;20050;-79
2024/01/28 09:19:57;;;;;;;15.70;14.02;;;;;;;;;;4974658;28;20477;-79
2024/01/28 09:22:24;;;;;;;13.07;11.77;;;;;;;;;;4967562;28;20408;-78
2024/01/28 09:24:50;;;;;;;11.52;9.73;;;;;;;;;;4958145;28;20058;-79
2024/01/28 09:27:22;;;;;;;13.27;11.48;;;;;;;;;;4962434;28;20070;-83
2024/01/28 09:29:49;;;;;;;14.65;13.15;;;;;;;;;;4973561;28;20050;-79
2024/01/28 09:32:17;;;;;;;14.55;12.85;;;;;;;;;;4970098;28;20054;-78
2024/01/28 09:34:46;;;;;;;14.20;11.13;;;;;;;;;;4974746;28;20058;-79
2024/01/28 09:37:13;;;;;;;8.80;7.75;;;;;;;;;;4971537;28;20043;-78
2024/01/28 09:39:40;;;;;;;13.95;8.85;;;;;;;;;;4968867;28;20062;-78
2024/01/28 09:42:10;;;;;;;9.02;7.95;;;;;;;;;;4972104;28;20054;-78
2024/01/28 09:44:37;;;;;;;12.18;9.15;;;;;;;;;;4970319;28;20058;-78
2024/01/28 09:47:04;;;;;;;9.55;8.02;;;;;;;;;;4974215;28;20078;-78
2024/01/28 09:49:39;;;;;;;12.82;10.27;;;;;;;;;;4964373;28;20417;-78
2024/01/28 09:52:09;;;;;;;12.95;11.45;;;;;;;;;;4957001;28;20051;-80
2024/01/28 09:54:36;;;;;;;8.52;6.65;;;;;;;;;;4975178;28;20051;-79
2024/01/28 09:57:05;;;;;;;7.80;6.68;;;;;;;;;;4975096;28;20061;-82
2024/01/28 09:59:33;;;;;;;6.70;5.50;;;;;;;;;;4968738;28;20066;-79
2024/01/28 10:02:00;;;;;;;5.60;4.75;;;;;;;;;;4971338;28;20054;-76
2024/01/28 10:04:27;;;;;;;7.25;5.05;;;;;;;;;;4972754;28;20054;-77
2024/01/28 10:06:57;;;;;;;11.52;9.77;;;;;;;;;;4974860;28;20058;-77
2024/01/28 10:09:25;;;;;;;10.30;8.77;;;;;;;;;;4972168;28;20054;-77
2024/01/28 10:11:52;;;;;;;7.97;5.80;;;;;;;;;;4975547;28;20065;-77
2024/01/28 10:14:19;;;;;;;6.80;6.07;;;;;;;;;;4973735;28;20464;-77
2024/01/28 10:16:46;;;;;;;5.75;4.85;;;;;;;;;;4974895;28;20050;-77
2024/01/28 10:19:13;;;;;;;7.68;5.43;;;;;;;;;;4975071;28;20468;-78
2024/01/28 10:21:41;;;;;;;6.38;5.05;;;;;;;;;;4974894;28;20432;-77
2024/01/28 10:24:08;;;;;;;7.80;5.00;;;;;;;;;;4973211;28;20051;-77
2024/01/28 10:26:37;;;;;;;5.68;4.68;;;;;;;;;;4955952;29;20055;-77
2024/01/28 10:29:03;;;;;;;5.47;4.50;;;;;;;;;;4962128;28;20066;-77
2024/01/28 10:31:30;;;;;;;7.53;5.65;;;;;;;;;;4957789;28;20055;-78
2024/01/28 10:33:57;;;;;;;7.03;4.97;;;;;;;;;;4991062;28;20046;-79
2024/01/28 10:36:24;;;;;;;6.18;4.60;;;;;;;;;;4963677;28;20358;-78
2024/01/28 10:38:52;;;;;;;5.55;4.25;;;;;;;;;;4955209;28;20055;-78
2024/01/28 10:41:19;;;;;;;5.82;4.68;;;;;;;;;;4967779;28;20062;-77
2024/01/28 10:43:57;;;;;;;5.72;4.80;;;;;;;;;;4972311;28;20388;-78
2024/01/28 10:46:28;;;;;;;6.05;5.00;;;;;;;;;;4967268;28;20420;-77
2024/01/28 10:48:59;;;;;;;5.60;5.00;;;;;;;;;;4955310;29;20074;-78
2024/01/28 10:51:26;;;;;;;6.50;5.30;;;;;;;;;;4956903;28;20420;-79
2024/01/28 10:53:53;;;;;;;7.10;5.70;;;;;;;;;;4968709;28;20050;-79
2024/01/28 10:56:21;;;;;;;11.43;10.25;;;;;;;;;;4973463;28;20050;-79
2024/01/28 10:58:50;;;;;;;7.93;5.03;;;;;;;;;;4969561;28;20460;-79
2024/01/28 11:01:18;;;;;;;5.85;3.67;;;;;;;;;;4973953;28;20058;-79
2024/01/28 11:03:45;;;;;;;4.20;2.67;;;;;;;;;;4973514;28;20061;-79
2024/01/28 11:06:15;;;;;;;5.45;3.80;;;;;;;;;;4963447;28;20058;-80
2024/01/28 11:08:42;;;;;;;4.18;3.25;;;;;;;;;;4965049;28;20055;-79
2024/01/28 11:11:09;;;;;;;5.15;3.47;;;;;;;;;;4970715;28;20055;-81
2024/01/28 11:13:37;;;;;;;5.68;3.92;;;;;;;;;;4972589;28;20074;-80
2024/01/28 11:16:08;;;;;;;7.10;2.90;;;;;;;;;;4972999;28;20050;-83
2024/01/28 11:18:35;;;;;;;3.17;2.38;;;;;;;;;;4973867;28;20055;-83
2024/01/28 11:21:10;;;;;;;4.57;3.25;;;;;;;;;;4974132;28;20046;-82
2024/01/28 11:23:42;;;;;;;5.82;4.10;;;;;;;;;;4973371;28;20061;-78
2024/01/28 11:26:12;;;;;;;7.55;4.60;;;;;;;;;;4969857;28;20047;-78
2024/01/28 11:28:39;;;;;;;3.80;3.30;;;;;;;;;;4972752;28;20448;-77
2024/01/28 11:31:19;;;;;;;4.22;3.10;;;;;;;;;;4973060;28;20065;-78
2024/01/28 11:33:46;;;;;;;6.30;4.57;;;;;;;;;;4990278;28;20058;-77
2024/01/28 11:36:14;;;;;;;4.93;4.43;;;;;;;;;;4975898;28;20404;-77
2024/01/28 11:38:42;;;;;;;5.28;3.38;;;;;;;;;;4973446;28;20066;-79
2024/01/28 11:41:10;;;;;;;3.50;2.65;;;;;;;;;;4973697;28;20411;-78
2024/01/28 11:43:37;;;;;;;4.60;2.45;;;;;;;;;;4973456;28;20080;-78
2024/01/28 11:46:05;;;;;;;5.25;3.90;;;;;;;;;;4968056;28;20051;-77
2024/01/28 11:48:34;;;;;;;1.80;1.20;;;;;;;;;;4957454;28;20534;-78
2024/01/28 11:51:02;;;;;;;1.98;1.20;;;;;;;;;;4962356;28;20054;-77
2024/01/28 11:53:28;;;;;;;1.70;1.00;;;;;;;;;;4974021;28;20493;-77
2024/01/28 11:56:05;;;;;;;2.38;1.10;;;;;;;;;;4976054;28;20404;-77
2024/01/28 11:58:32;;;;;;;3.42;1.08;;;;;;;;;;4973086;28;20487;-77
2024/01/28 12:00:58;;;;;;;2.40;1.30;;;;;;;;;;4975523;28;20055;-76
2024/01/28 12:03:25;;;;;;;1.90;1.20;;;;;;;;;;4975602;28;20405;-76
2024/01/28 12:05:54;;;;;;;2.20;1.10;;;;;;;;;;4977808;28;20061;-76
2024/01/28 12:08:29;;;;;;;2.50;1.20;;;;;;;;;;4977312;28;20054;-76
2024/01/28 12:10:57;;;;;;;1.90;1.00;;;;;;;;;;4977475;28;20059;-76
2024/01/28 12:13:24;;;;;;;3.17;1.17;;;;;;;;;;4977351;28;20058;-77
2024/01/28 12:15:50;;;;;;;1.83;1.00;;;;;;;;;;4961185;28;20051;-76
2024/01/28 12:18:17;;;;;;;1.85;0.90;;;;;;;;;;4957491;28;20063;-77
2024/01/28 12:20:49;;;;;;;2.13;0.90;;;;;;;;;;4957865;29;20547;-77
2024/01/28 12:23:20;;;;;;;1.75;0.95;;;;;;;;;;4957295;28;20067;-76
2024/01/28 12:25:47;;;;;;;2.47;1.27;;;;;;;;;;4957731;29;20054;-77
2024/01/28 12:28:13;;;;;;;1.55;0.98;;;;;;;;;;4957350;28;20063;-77
2024/01/28 12:30:41;;;;;;;1.60;1.00;;;;;;;;;;4973588;28;20059;-77
2024/01/28 12:33:08;;;;;;;2.83;1.05;;;;;;;;;;4976558;28;20078;-77
2024/01/28 12:35:34;;;;;;;2.40;1.20;;;;;;;;;;4977104;28;20050;-77
2024/01/28 12:38:01;;;;;;;2.45;1.00;;;;;;;;;;4977790;28;20055;-77
2024/01/28 12:40:32;;;;;;;1.85;0.93;;;;;;;;;;4977647;28;20122;-77
2024/01/28 12:42:59;;;;;;;1.60;1.00;;;;;;;;;;4977785;28;20051;-77
2024/01/28 12:45:26;;;;;;;2.53;1.02;;;;;;;;;;4975195;28;20051;-77
2024/01/28 12:47:52;;;;;;;1.83;1.00;;;;;;;;;;4977390;28;20051;-77
2024/01/28 12:50:20;;;;;;;2.25;0.98;;;;;;;;;;4975905;28;20061;-77
2024/01/28 12:52:47;;;;;;;2.03;1.10;;;;;;;;;;4976697;28;20054;-77
2024/01/28 12:55:14;;;;;;;2.33;1.10;;;;;;;;;;4976890;28;20058;-77
2024/01/28 12:57:42;;;;;;;2.00;1.08;;;;;;;;;;4976405;28;20062;-78
2024/01/28 13:00:10;;;;;;;2.33;1.00;;;;;;;;;;4975529;28;20055;-77
2024/01/28 13:02:37;;;;;;;2.03;1.10;;;;;;;;;;4977053;28;20059;-77
2024/01/28 13:05:04;;;;;;;1.55;0.80;;;;;;;;;;4977197;28;20054;-77
2024/01/28 13:07:31;;;;;;;1.73;0.85;;;;;;;;;;4975202;28;20054;-77
2024/01/28 13:09:58;;;;;;;2.10;1.13;;;;;;;;;;4976494;28;20050;-77
2024/01/28 13:12:26;;;;;;;1.77;0.98;;;;;;;;;;4970716;28;20055;-77
2024/01/28 13:14:55;;;;;;;1.67;0.93;;;;;;;;;;4959122;28;20508;-77
2024/01/28 13:17:22;;;;;;;2.13;1.10;;;;;;;;;;4976457;28;20488;-77
2024/01/28 13:19:53;;;;;;;2.05;1.17;;;;;;;;;;4976479;28;20493;-77
2024/01/28 13:22:20;;;;;;;2.40;1.02;;;;;;;;;;4975717;28;20055;-77
2024/01/28 13:24:51;;;;;;;2.67;1.10;;;;;;;;;;4976321;28;20047;-77
2024/01/28 13:27:18;;;;;;;3.22;1.05;;;;;;;;;;4975992;28;20047;-77
2024/01/28 13:29:45;;;;;;;1.77;0.93;;;;;;;;;;4975036;28;20058;-77
2024/01/28 13:32:13;;;;;;;1.83;1.10;;;;;;;;;;4979430;28;20057;-77
2024/01/28 13:34:40;;;;;;;2.10;1.13;;;;;;;;;;4995472;28;20050;-77
2024/01/28 13:37:07;;;;;;;2.22;1.00;;;;;;;;;;4995470;28;20050;-77
2024/01/28 13:39:34;;;;;;;1.98;1.02;;;;;;;;;;4995145;28;20070;-77
2024/01/28 13:42:01;;;;;;;2.05;1.00;;;;;;;;;;4994889;28;20054;-77
2024/01/28 13:44:28;;;;;;;1.67;0.90;;;;;;;;;;4983526;28;20065;-76
2024/01/28 13:46:57;;;;;;;2.53;0.80;;;;;;;;;;4974928;28;20051;-77
2024/01/28 13:49:26;;;;;;;1.98;1.00;;;;;;;;;;4975884;28;20404;-76
2024/01/28 13:51:53;;;;;;;2.47;1.10;;;;;;;;;;4975447;28;20054;-76
2024/01/28 13:54:20;;;;;;;1.67;0.95;;;;;;;;;;4975983;28;20062;-77
2024/01/28 13:56:46;;;;;;;2.40;1.10;;;;;;;;;;4975436;28;20051;-76
2024/01/28 13:59:13;;;;;;;1.90;0.98;;;;;;;;;;4975776;28;20059;-76
2024/01/28 14:01:40;;;;;;;1.95;0.93;;;;;;;;;;4974322;28;20065;-76
2024/01/28 14:04:08;;;;;;;1.98;0.90;;;;;;;;;;4974808;28;20051;-76
2024/01/28 14:06:36;;;;;;;1.85;1.10;;;;;;;;;;4974096;28;20066;-77
2024/01/28 14:09:03;;;;;;;2.08;0.98;;;;;;;;;;4974807;28;20054;-77
2024/01/28 14:11:30;;;;;;;2.08;1.10;;;;;;;;;;4974992;28;20058;-77
2024/01/28 14:13:57;;;;;;;1.90;1.00;;;;;;;;;;4975216;28;20062;-77
2024/01/28 14:16:24;;;;;;;1.60;1.05;;;;;;;;;;4966869;28;20058;-77
2024/01/28 14:18:51;;;;;;;1.60;0.93;;;;;;;;;;4954761;28;20066;-76
2024/01/28 14:21:17;;;;;;;1.73;1.00;;;;;;;;;;4956005;29;20055;-76
2024/01/28 14:23:46;;;;;;;1.75;0.82;;;;;;;;;;4955314;28;20063;-76
2024/01/28 14:26:13;;;;;;;2.20;1.30;;;;;;;;;;4955782;29;20405;-77
2024/01/28 14:28:40;;;;;;;2.28;1.05;;;;;;;;;;4955913;29;20070;-76
2024/01/28 14:31:07;;;;;;;2.70;1.13;;;;;;;;;;4958679;28;20055;-76
2024/01/28 14:33:33;;;;;;;1.75;1.08;;;;;;;;;;4989314;28;20418;-76
2024/01/28 14:36:00;;;;;;;1.80;1.15;;;;;;;;;;4994367;28;20050;-76